Time,TemperatureF,DewpointF,PressureIn,WindDirection,WindDirectionDegrees,WindSpeedMPH,WindSpeedGustMPH,Humidity,HourlyPrecipIn,Conditions,Clouds,dailyrainin,SolarRadiationWatts/m^2,SoftwareType,DateUTC
2013-03-07 00:02:00,29.0,25.0,-100.00,ESE,104,0.0,8.0,84,0.00,,,0.00,0.000000,,2013-03-07 05:02:00,
2013-03-07 00:12:00,29.0,25.0,-100.00,ESE,104,0.0,8.0,84,0.00,,,0.00,0.000000,,2013-03-07 05:12:00,
2013-03-07 00:21:00,27.0,24.0,-100.00,ENE,66,2.0,7.0,88,0.00,,,0.00,0.000000,,2013-03-07 05:21:00,
2013-03-07 00:42:00,27.0,24.0,-100.00,ENE,66,2.0,7.0,88,0.00,,,0.00,0.000000,,2013-03-07 05:42:00,
2013-03-07 00:52:00,27.0,24.0,-100.00,ENE,66,2.0,7.0,88,0.00,,,0.00,0.000000,,2013-03-07 05:52:00,
2013-03-07 01:01:00,27.0,24.0,-100.00,ENE,66,2.0,7.0,88,0.00,,,0.00,0.000000,,2013-03-07 06:01:00,
2013-03-07 01:11:00,27.0,24.0,-100.00,ENE,66,2.0,7.0,88,0.00,,,0.00,0.000000,,2013-03-07 06:11:00,
2013-03-07 01:21:00,28.0,24.0,-100.00,ENE,64,1.0,5.0,86,0.00,,,0.00,0.000000,,2013-03-07 06:21:00,
2013-03-07 01:42:00,28.0,24.0,-100.00,ENE,64,1.0,5.0,86,0.00,,,0.00,0.000000,,2013-03-07 06:42:00,
2013-03-07 01:52:00,28.0,24.0,-100.00,ENE,64,1.0,5.0,86,0.00,,,0.00,0.000000,,2013-03-07 06:52:00,
2013-03-07 02:01:00,28.0,24.0,-100.00,ENE,64,1.0,5.0,86,0.00,,,0.00,0.000000,,2013-03-07 07:01:00,
2013-03-07 02:11:00,28.0,24.0,-100.00,ENE,64,1.0,5.0,86,0.00,,,0.00,0.000000,,2013-03-07 07:11:00,
2013-03-07 02:21:00,27.0,23.0,-100.00,SSE,147,0.0,5.0,84,0.00,,,0.00,0.000000,,2013-03-07 07:21:00,
2013-03-07 02:43:00,27.0,23.0,-100.00,SSE,147,0.0,5.0,84,0.00,,,0.00,0.000000,,2013-03-07 07:43:00,
2013-03-07 02:53:00,27.0,23.0,-100.00,SSE,147,0.0,5.0,84,0.00,,,0.00,0.000000,,2013-03-07 07:53:00,
2013-03-07 03:02:00,27.0,23.0,-100.00,SSE,147,0.0,5.0,84,0.00,,,0.00,0.000000,,2013-03-07 08:02:00,
2013-03-07 03:12:00,27.0,23.0,-100.00,SSE,147,0.0,5.0,84,0.00,,,0.00,0.000000,,2013-03-07 08:12:00,
2013-03-07 03:21:00,26.0,23.0,-100.00,WNW,293,0.0,6.0,88,0.00,,,0.00,0.000000,,2013-03-07 08:21:00,
2013-03-07 03:45:00,26.0,23.0,-100.00,WNW,293,0.0,6.0,88,0.00,,,0.00,0.000000,,2013-03-07 08:45:00,
2013-03-07 03:54:00,26.0,23.0,-100.00,WNW,293,0.0,6.0,88,0.00,,,0.00,0.000000,,2013-03-07 08:54:00,
2013-03-07 04:03:00,26.0,23.0,-100.00,WNW,293,0.0,6.0,88,0.00,,,0.00,0.000000,,2013-03-07 09:03:00,
2013-03-07 04:13:00,26.0,23.0,-100.00,WNW,293,0.0,6.0,88,0.00,,,0.00,0.000000,,2013-03-07 09:13:00,
2013-03-07 04:21:00,26.0,23.0,-100.00,SW,227,3.0,6.0,88,0.00,,,0.00,0.000000,,2013-03-07 09:21:00,
2013-03-07 04:43:00,26.0,23.0,-100.00,SW,227,3.0,6.0,88,0.00,,,0.00,0.000000,,2013-03-07 09:43:00,
2013-03-07 04:53:00,26.0,23.0,-100.00,SW,227,3.0,6.0,88,0.00,,,0.00,0.000000,,2013-03-07 09:53:00,
2013-03-07 05:03:00,26.0,23.0,-100.00,SW,227,3.0,6.0,88,0.00,,,0.00,0.000000,,2013-03-07 10:03:00,
2013-03-07 05:13:00,26.0,23.0,-100.00,SW,227,3.0,6.0,88,0.00,,,0.00,0.000000,,2013-03-07 10:13:00,
2013-03-07 05:21:00,25.0,23.0,-100.00,SW,225,4.0,6.0,91,0.00,,,0.00,0.000000,,2013-03-07 10:21:00,
2013-03-07 05:43:00,25.0,23.0,-100.00,SW,225,4.0,6.0,91,0.00,,,0.00,0.000000,,2013-03-07 10:43:00,
2013-03-07 05:53:00,25.0,23.0,-100.00,SW,225,4.0,6.0,91,0.00,,,0.00,0.000000,,2013-03-07 10:53:00,
2013-03-07 06:03:00,25.0,23.0,-100.00,SW,225,4.0,6.0,91,0.00,,,0.00,0.000000,,2013-03-07 11:03:00,
2013-03-07 06:12:00,25.0,23.0,-100.00,SW,225,4.0,6.0,91,0.00,,,0.00,0.000000,,2013-03-07 11:12:00,
2013-03-07 06:21:00,25.0,23.0,-100.00,SW,224,5.0,7.0,92,0.00,,,0.00,0.000000,,2013-03-07 11:21:00,
2013-03-07 06:44:00,25.0,23.0,-100.00,SW,224,5.0,7.0,92,0.00,,,0.00,0.000000,,2013-03-07 11:44:00,
2013-03-07 06:54:00,25.0,23.0,-100.00,SW,224,5.0,7.0,92,0.00,,,0.00,0.000000,,2013-03-07 11:54:00,
2013-03-07 07:03:00,25.0,23.0,-100.00,SW,224,5.0,7.0,92,0.00,,,0.00,0.000000,,2013-03-07 12:03:00,
2013-03-07 07:12:00,25.0,23.0,-100.00,SW,224,5.0,7.0,92,0.00,,,0.00,0.000000,,2013-03-07 12:12:00,
2013-03-07 07:21:00,27.0,25.0,-100.00,WNW,292,7.0,14.0,92,0.00,,,0.00,0.000000,,2013-03-07 12:21:00,
2013-03-07 07:43:00,27.0,25.0,-100.00,WNW,292,7.0,14.0,92,0.00,,,0.00,0.000000,,2013-03-07 12:43:00,
2013-03-07 07:53:00,27.0,25.0,-100.00,WNW,292,7.0,14.0,92,0.00,,,0.00,0.000000,,2013-03-07 12:53:00,
2013-03-07 08:02:00,27.0,25.0,-100.00,WNW,292,7.0,14.0,92,0.00,,,0.00,0.000000,,2013-03-07 13:02:00,
2013-03-07 08:12:00,27.0,25.0,-100.00,WNW,292,7.0,14.0,92,0.00,,,0.00,0.000000,,2013-03-07 13:12:00,
2013-03-07 08:21:00,25.0,24.0,-100.00,WSW,251,0.0,12.0,95,0.00,,,0.00,0.000000,,2013-03-07 13:21:00,
2013-03-07 08:42:00,25.0,24.0,-100.00,WSW,251,0.0,12.0,95,0.00,,,0.00,0.000000,,2013-03-07 13:42:00,
2013-03-07 08:53:00,25.0,24.0,-100.00,WSW,251,0.0,12.0,95,0.00,,,0.00,0.000000,,2013-03-07 13:53:00,
2013-03-07 09:02:00,25.0,24.0,-100.00,WSW,251,0.0,12.0,95,0.00,,,0.00,0.000000,,2013-03-07 14:02:00,
2013-03-07 09:12:00,25.0,24.0,-100.00,WSW,251,0.0,12.0,95,0.00,,,0.00,0.000000,,2013-03-07 14:12:00,
2013-03-07 09:21:00,24.0,23.0,-100.00,SE,133,1.0,9.0,97,0.00,,,0.00,9.000000,,2013-03-07 14:21:00,
2013-03-07 09:43:00,24.0,23.0,-100.00,SE,133,1.0,9.0,97,0.00,,,0.00,9.000000,,2013-03-07 14:43:00,
2013-03-07 09:54:00,24.0,23.0,-100.00,SE,133,1.0,9.0,97,0.00,,,0.00,9.000000,,2013-03-07 14:54:00,
2013-03-07 10:03:00,24.0,23.0,-100.00,SE,133,1.0,9.0,97,0.00,,,0.00,9.000000,,2013-03-07 15:03:00,
2013-03-07 10:12:00,24.0,23.0,-100.00,SE,133,1.0,9.0,97,0.00,,,0.00,9.000000,,2013-03-07 15:12:00,
2013-03-07 10:21:00,33.0,26.0,-100.00,WSW,257,6.0,14.0,75,0.00,,,0.00,69.000000,,2013-03-07 15:21:00,
2013-03-07 10:43:00,33.0,26.0,-100.00,WSW,257,6.0,14.0,75,0.00,,,0.00,69.000000,,2013-03-07 15:43:00,
2013-03-07 10:53:00,33.0,26.0,-100.00,WSW,257,6.0,14.0,75,0.00,,,0.00,69.000000,,2013-03-07 15:53:00,
2013-03-07 11:02:00,33.0,26.0,-100.00,WSW,257,6.0,14.0,75,0.00,,,0.00,69.000000,,2013-03-07 16:02:00,
2013-03-07 11:12:00,33.0,26.0,-100.00,WSW,257,6.0,14.0,75,0.00,,,0.00,69.000000,,2013-03-07 16:12:00,
2013-03-07 11:21:00,36.0,27.0,-100.00,West,268,4.0,10.0,69,0.00,,,0.00,224.000000,,2013-03-07 16:21:00,
2013-03-07 11:43:00,36.0,27.0,-100.00,West,268,4.0,10.0,69,0.00,,,0.00,224.000000,,2013-03-07 16:43:00,
2013-03-07 11:53:00,36.0,27.0,-100.00,West,268,4.0,10.0,69,0.00,,,0.00,224.000000,,2013-03-07 16:53:00,
2013-03-07 12:02:00,36.0,27.0,-100.00,West,268,4.0,10.0,69,0.00,,,0.00,224.000000,,2013-03-07 17:02:00,
2013-03-07 12:12:00,36.0,27.0,-100.00,West,268,4.0,10.0,69,0.00,,,0.00,224.000000,,2013-03-07 17:12:00,
2013-03-07 12:21:00,40.0,27.0,-100.00,WNW,293,4.0,11.0,59,0.00,,,0.00,445.000000,,2013-03-07 17:21:00,
2013-03-07 12:54:00,40.0,27.0,-100.00,WNW,293,4.0,11.0,59,0.00,,,0.00,445.000000,,2013-03-07 17:54:00,
2013-03-07 13:03:00,40.0,27.0,-100.00,WNW,293,4.0,11.0,59,0.00,,,0.00,445.000000,,2013-03-07 18:03:00,
2013-03-07 13:12:00,40.0,27.0,-100.00,WNW,293,4.0,11.0,59,0.00,,,0.00,445.000000,,2013-03-07 18:12:00,
2013-03-07 13:21:00,37.0,28.0,-100.00,NW,311,7.0,18.0,71,0.00,,,0.00,621.000000,,2013-03-07 18:21:00,
2013-03-07 13:43:00,37.0,28.0,-100.00,NW,311,7.0,18.0,71,0.00,,,0.00,621.000000,,2013-03-07 18:43:00,
2013-03-07 13:53:00,37.0,28.0,-100.00,NW,311,7.0,18.0,71,0.00,,,0.00,621.000000,,2013-03-07 18:53:00,
2013-03-07 14:03:00,37.0,28.0,-100.00,NW,311,7.0,18.0,71,0.00,,,0.00,621.000000,,2013-03-07 19:03:00,
2013-03-07 14:12:00,37.0,28.0,-100.00,NW,311,7.0,18.0,71,0.00,,,0.00,621.000000,,2013-03-07 19:12:00,
2013-03-07 14:21:00,37.0,30.0,-100.00,SSW,201,6.0,17.0,77,0.00,,,0.00,703.000000,,2013-03-07 19:21:00,
2013-03-07 14:44:00,37.0,30.0,-100.00,SSW,201,6.0,17.0,77,0.00,,,0.00,703.000000,,2013-03-07 19:44:00,
2013-03-07 14:53:00,37.0,30.0,-100.00,SSW,201,6.0,17.0,77,0.00,,,0.00,703.000000,,2013-03-07 19:53:00,
2013-03-07 15:02:00,37.0,30.0,-100.00,SSW,201,6.0,17.0,77,0.00,,,0.00,703.000000,,2013-03-07 20:02:00,
2013-03-07 15:13:00,37.0,30.0,-100.00,SSW,201,6.0,17.0,77,0.00,,,0.00,703.000000,,2013-03-07 20:13:00,
2013-03-07 15:21:00,40.0,33.0,-100.00,SW,236,4.0,12.0,75,0.00,,,0.00,710.000000,,2013-03-07 20:21:00,
2013-03-07 15:43:00,40.0,33.0,-100.00,SW,236,4.0,12.0,75,0.00,,,0.00,710.000000,,2013-03-07 20:43:00,
2013-03-07 15:54:00,40.0,33.0,-100.00,SW,236,4.0,12.0,75,0.00,,,0.00,710.000000,,2013-03-07 20:54:00,
2013-03-07 16:02:00,40.0,33.0,-100.00,SW,236,4.0,12.0,75,0.00,,,0.00,710.000000,,2013-03-07 21:02:00,
2013-03-07 16:12:00,40.0,33.0,-100.00,SW,236,4.0,12.0,75,0.00,,,0.00,710.000000,,2013-03-07 21:12:00,
2013-03-07 16:21:00,40.0,32.0,-100.00,South,185,6.0,10.0,73,0.01,,,0.01,627.000000,,2013-03-07 21:21:00,
2013-03-07 16:43:00,40.0,32.0,-100.00,South,185,6.0,10.0,73,0.01,,,0.01,627.000000,,2013-03-07 21:43:00,
2013-03-07 16:53:00,40.0,32.0,-100.00,South,185,6.0,10.0,73,0.01,,,0.01,627.000000,,2013-03-07 21:53:00,
2013-03-07 17:02:00,40.0,32.0,-100.00,South,185,6.0,10.0,73,0.01,,,0.01,627.000000,,2013-03-07 22:02:00,
2013-03-07 17:12:00,40.0,32.0,-100.00,South,185,6.0,10.0,73,0.01,,,0.01,627.000000,,2013-03-07 22:12:00,
2013-03-07 17:21:00,45.0,32.0,-100.00,South,170,0.0,12.0,60,0.00,,,0.01,504.000000,,2013-03-07 22:21:00,
2013-03-07 17:43:00,45.0,32.0,-100.00,South,170,0.0,12.0,60,0.00,,,0.01,504.000000,,2013-03-07 22:43:00,
2013-03-07 17:54:00,45.0,32.0,-100.00,South,170,0.0,12.0,60,0.00,,,0.01,504.000000,,2013-03-07 22:54:00,
2013-03-07 18:03:00,45.0,32.0,-100.00,South,170,0.0,12.0,60,0.00,,,0.01,504.000000,,2013-03-07 23:03:00,
2013-03-07 18:13:00,45.0,32.0,-100.00,South,170,0.0,12.0,60,0.00,,,0.01,504.000000,,2013-03-07 23:13:00,
2013-03-07 18:21:00,42.0,31.0,-100.00,East,95,1.0,7.0,65,0.00,,,0.01,328.000000,,2013-03-07 23:21:00,
2013-03-07 18:44:00,42.0,31.0,-100.00,East,95,1.0,7.0,65,0.00,,,0.01,328.000000,,2013-03-07 23:44:00,
2013-03-07 18:54:00,42.0,31.0,-100.00,East,95,1.0,7.0,65,0.00,,,0.01,328.000000,,2013-03-07 23:54:00,
2013-03-07 19:04:00,42.0,31.0,-100.00,East,95,1.0,7.0,65,0.00,,,0.01,328.000000,,2013-03-08 00:04:00,
2013-03-07 19:13:00,42.0,31.0,-100.00,East,95,1.0,7.0,65,0.00,,,0.01,328.000000,,2013-03-08 00:13:00,
2013-03-07 19:21:00,38.0,29.0,-100.00,ESE,118,1.0,9.0,71,0.00,,,0.01,124.000000,,2013-03-08 00:21:00,
2013-03-07 19:44:00,38.0,29.0,-100.00,ESE,118,1.0,9.0,71,0.00,,,0.01,124.000000,,2013-03-08 00:44:00,
2013-03-07 19:54:00,38.0,29.0,-100.00,ESE,118,1.0,9.0,71,0.00,,,0.01,124.000000,,2013-03-08 00:54:00,
2013-03-07 20:02:00,38.0,29.0,-100.00,ESE,118,1.0,9.0,71,0.00,,,0.01,124.000000,,2013-03-08 01:02:00,
2013-03-07 20:11:00,38.0,29.0,-100.00,ESE,118,1.0,9.0,71,0.00,,,0.01,124.000000,,2013-03-08 01:11:00,
2013-03-07 20:21:00,37.0,30.0,-100.00,SSE,152,3.0,5.0,77,0.00,,,0.01,16.000000,,2013-03-08 01:21:00,
2013-03-07 20:42:00,37.0,30.0,-100.00,SSE,152,3.0,5.0,77,0.00,,,0.01,16.000000,,2013-03-08 01:42:00,
2013-03-07 20:52:00,37.0,30.0,-100.00,SSE,152,3.0,5.0,77,0.00,,,0.01,16.000000,,2013-03-08 01:52:00,
2013-03-07 21:01:00,37.0,30.0,-100.00,SSE,152,3.0,5.0,77,0.00,,,0.01,16.000000,,2013-03-08 02:01:00,
2013-03-07 21:11:00,37.0,30.0,-100.00,SSE,152,3.0,5.0,77,0.00,,,0.01,16.000000,,2013-03-08 02:11:00,
2013-03-07 21:42:00,35.0,29.0,-100.00,ESE,123,1.0,5.0,79,0.00,,,0.01,0.000000,,2013-03-08 02:42:00,
2013-03-07 21:53:00,35.0,29.0,-100.00,ESE,123,1.0,5.0,79,0.00,,,0.01,0.000000,,2013-03-08 02:53:00,
2013-03-07 22:02:00,35.0,29.0,-100.00,ESE,123,1.0,5.0,79,0.00,,,0.01,0.000000,,2013-03-08 03:02:00,
2013-03-07 22:12:00,35.0,29.0,-100.00,ESE,123,1.0,5.0,79,0.00,,,0.01,0.000000,,2013-03-08 03:12:00,
2013-03-07 22:21:00,36.0,29.0,-100.00,ESE,117,0.0,4.0,77,0.00,,,0.01,0.000000,,2013-03-08 03:21:00,
2013-03-07 22:43:00,36.0,29.0,-100.00,ESE,117,0.0,4.0,77,0.00,,,0.01,0.000000,,2013-03-08 03:43:00,
2013-03-07 22:53:00,36.0,29.0,-100.00,ESE,117,0.0,4.0,77,0.00,,,0.01,0.000000,,2013-03-08 03:53:00,
2013-03-07 23:01:00,36.0,29.0,-100.00,ESE,117,0.0,4.0,77,0.00,,,0.01,0.000000,,2013-03-08 04:01:00,
2013-03-07 23:11:00,36.0,29.0,-100.00,ESE,117,0.0,4.0,77,0.00,,,0.01,0.000000,,2013-03-08 04:11:00,
2013-03-07 23:21:00,36.0,29.0,-100.00,SE,126,2.0,6.0,74,0.00,,,0.01,0.000000,,2013-03-08 04:21:00,
2013-03-07 23:42:00,36.0,29.0,-100.00,SE,126,2.0,6.0,74,0.00,,,0.01,0.000000,,2013-03-08 04:42:00,
2013-03-07 23:52:00,36.0,29.0,-100.00,SE,126,2.0,6.0,74,0.00,,,0.01,0.000000,,2013-03-08 04:52:00,